sensor_id;sensor_type;location;lat;lon;timestamp;temperature;humidity
6256;DHT22;3161;48.794;9.784;2022-10-16T00:01:11;15.80;99.90
6256;DHT22;3161;48.794;9.784;2022-10-16T00:03:40;15.80;99.90
6256;DHT22;3161;48.794;9.784;2022-10-16T00:06:08;15.80;99.90
6256;DHT22;3161;48.794;9.784;2022-10-16T00:08:37;15.80;99.90
6256;DHT22;3161;48.794;9.784;2022-10-16T00:11:12;15.90;99.90
6256;DHT22;3161;48.794;9.784;2022-10-16T00:13:38;15.80;99.90
6256;DHT22;3161;48.794;9.784;2022-10-16T00:16:06;15.80;99.90
6256;DHT22;3161;48.794;9.784;2022-10-16T00:18:34;15.80;99.90
6256;DHT22;3161;48.794;9.784;2022-10-16T00:21:04;15.80;99.90
6256;DHT22;3161;48.794;9.784;2022-10-16T00:23:32;15.80;99.90
6256;DHT22;3161;48.794;9.784;2022-10-16T00:26:03;15.70;99.90
6256;DHT22;3161;48.794;9.784;2022-10-16T00:28:31;15.80;99.90
6256;DHT22;3161;48.794;9.784;2022-10-16T00:31:02;15.70;99.90
6256;DHT22;3161;48.794;9.784;2022-10-16T00:33:28;15.70;99.90
6256;DHT22;3161;48.794;9.784;2022-10-16T00:35:58;15.70;99.90
6256;DHT22;3161;48.794;9.784;2022-10-16T00:38:25;15.70;99.90
6256;DHT22;3161;48.794;9.784;2022-10-16T00:40:53;15.70;99.90
6256;DHT22;3161;48.794;9.784;2022-10-16T00:46:25;15.70;99.90
6256;DHT22;3161;48.794;9.784;2022-10-16T00:48:38;15.70;99.90
6256;DHT22;3161;48.794;9.784;2022-10-16T00:51:07;15.70;99.90
6256;DHT22;3161;48.794;9.784;2022-10-16T00:53:35;15.70;99.90
6256;DHT22;3161;48.794;9.784;2022-10-16T00:56:04;15.60;99.90
6256;DHT22;3161;48.794;9.784;2022-10-16T00:58:32;15.60;99.90
6256;DHT22;3161;48.794;9.784;2022-10-16T01:01:00;15.60;99.90
6256;DHT22;3161;48.794;9.784;2022-10-16T01:03:30;15.60;99.90
6256;DHT22;3161;48.794;9.784;2022-10-16T01:06:19;15.60;99.90
6256;DHT22;3161;48.794;9.784;2022-10-16T01:11:32;15.50;99.90
6256;DHT22;3161;48.794;9.784;2022-10-16T01:14:02;15.50;99.90
6256;DHT22;3161;48.794;9.784;2022-10-16T01:16:34;15.50;99.90
6256;DHT22;3161;48.794;9.784;2022-10-16T01:19:24;15.40;99.90
6256;DHT22;3161;48.794;9.784;2022-10-16T01:21:46;15.40;99.90
6256;DHT22;3161;48.794;9.784;2022-10-16T01:24:38;15.40;99.90
6256;DHT22;3161;48.794;9.784;2022-10-16T01:27:27;15.30;99.90
6256;DHT22;3161;48.794;9.784;2022-10-16T01:30:13;15.30;99.90
6256;DHT22;3161;48.794;9.784;2022-10-16T01:32:36;15.30;99.90
6256;DHT22;3161;48.794;9.784;2022-10-16T01:35:11;15.20;99.90
6256;DHT22;3161;48.794;9.784;2022-10-16T01:40:19;15.20;99.90
6256;DHT22;3161;48.794;9.784;2022-10-16T01:42:51;15.20;99.90
6256;DHT22;3161;48.794;9.784;2022-10-16T01:45:19;15.20;99.90
6256;DHT22;3161;48.794;9.784;2022-10-16T01:47:49;15.10;99.90
6256;DHT22;3161;48.794;9.784;2022-10-16T01:50:18;15.10;99.90
6256;DHT22;3161;48.794;9.784;2022-10-16T01:52:49;15.10;99.90
6256;DHT22;3161;48.794;9.784;2022-10-16T01:55:22;15.10;99.90
6256;DHT22;3161;48.794;9.784;2022-10-16T01:57:49;15.10;99.90
6256;DHT22;3161;48.794;9.784;2022-10-16T02:00:19;15.10;99.90
6256;DHT22;3161;48.794;9.784;2022-10-16T02:02:49;15.10;99.90
6256;DHT22;3161;48.794;9.784;2022-10-16T02:05:27;15.10;99.90
6256;DHT22;3161;48.794;9.784;2022-10-16T02:07:55;15.00;99.90
6256;DHT22;3161;48.794;9.784;2022-10-16T02:10:24;15.00;99.90
6256;DHT22;3161;48.794;9.784;2022-10-16T02:12:58;15.00;99.90
6256;DHT22;3161;48.794;9.784;2022-10-16T02:15:25;15.00;99.90
6256;DHT22;3161;48.794;9.784;2022-10-16T02:17:53;15.00;99.90
6256;DHT22;3161;48.794;9.784;2022-10-16T02:20:23;15.00;99.90
6256;DHT22;3161;48.794;9.784;2022-10-16T02:22:52;15.00;99.90
6256;DHT22;3161;48.794;9.784;2022-10-16T02:25:32;15.00;99.90
6256;DHT22;3161;48.794;9.784;2022-10-16T02:28:22;15.00;99.90
6256;DHT22;3161;48.794;9.784;2022-10-16T02:33:25;15.00;99.90
6256;DHT22;3161;48.794;9.784;2022-10-16T02:35:56;15.00;99.90
6256;DHT22;3161;48.794;9.784;2022-10-16T02:38:24;15.00;99.90
6256;DHT22;3161;48.794;9.784;2022-10-16T02:40:52;15.00;99.90
6256;DHT22;3161;48.794;9.784;2022-10-16T02:43:20;15.00;99.90
6256;DHT22;3161;48.794;9.784;2022-10-16T02:45:48;15.00;99.90
6256;DHT22;3161;48.794;9.784;2022-10-16T02:48:15;14.90;99.90
6256;DHT22;3161;48.794;9.784;2022-10-16T02:50:43;15.00;99.90
6256;DHT22;3161;48.794;9.784;2022-10-16T02:53:10;15.00;99.90
6256;DHT22;3161;48.794;9.784;2022-10-16T02:55:38;15.00;99.90
6256;DHT22;3161;48.794;9.784;2022-10-16T02:58:05;15.00;99.90
6256;DHT22;3161;48.794;9.784;2022-10-16T03:00:33;15.00;99.90
6256;DHT22;3161;48.794;9.784;2022-10-16T03:03:00;15.00;99.90
6256;DHT22;3161;48.794;9.784;2022-10-16T03:05:28;15.00;99.90
6256;DHT22;3161;48.794;9.784;2022-10-16T03:07:55;15.00;99.90
6256;DHT22;3161;48.794;9.784;2022-10-16T03:10:23;15.10;99.90
6256;DHT22;3161;48.794;9.784;2022-10-16T03:12:50;15.00;99.90
6256;DHT22;3161;48.794;9.784;2022-10-16T03:15:18;15.10;99.90
6256;DHT22;3161;48.794;9.784;2022-10-16T03:17:46;15.00;99.90
6256;DHT22;3161;48.794;9.784;2022-10-16T03:20:13;15.00;99.90
6256;DHT22;3161;48.794;9.784;2022-10-16T03:22:41;15.10;99.90
6256;DHT22;3161;48.794;9.784;2022-10-16T03:25:08;15.00;99.90
6256;DHT22;3161;48.794;9.784;2022-10-16T03:27:36;15.00;99.90
6256;DHT22;3161;48.794;9.784;2022-10-16T03:30:04;15.10;99.90
6256;DHT22;3161;48.794;9.784;2022-10-16T03:32:32;15.10;99.90
6256;DHT22;3161;48.794;9.784;2022-10-16T03:34:59;15.10;99.90
6256;DHT22;3161;48.794;9.784;2022-10-16T03:37:27;15.10;99.90
6256;DHT22;3161;48.794;9.784;2022-10-16T03:39:54;15.10;99.90
6256;DHT22;3161;48.794;9.784;2022-10-16T03:42:22;15.10;99.90
6256;DHT22;3161;48.794;9.784;2022-10-16T03:44:50;15.10;99.90
6256;DHT22;3161;48.794;9.784;2022-10-16T03:47:18;15.10;99.90
6256;DHT22;3161;48.794;9.784;2022-10-16T03:49:48;15.10;99.90
6256;DHT22;3161;48.794;9.784;2022-10-16T03:52:16;15.10;99.90
6256;DHT22;3161;48.794;9.784;2022-10-16T03:54:44;15.10;99.90
6256;DHT22;3161;48.794;9.784;2022-10-16T03:57:11;15.10;99.90
6256;DHT22;3161;48.794;9.784;2022-10-16T03:59:39;15.10;99.90
6256;DHT22;3161;48.794;9.784;2022-10-16T04:02:06;15.00;99.90
6256;DHT22;3161;48.794;9.784;2022-10-16T04:04:34;15.00;99.90
6256;DHT22;3161;48.794;9.784;2022-10-16T04:07:01;15.00;99.90
6256;DHT22;3161;48.794;9.784;2022-10-16T04:09:29;15.00;99.90
6256;DHT22;3161;48.794;9.784;2022-10-16T04:11:56;15.00;99.90
6256;DHT22;3161;48.794;9.784;2022-10-16T04:14:24;15.00;99.90
6256;DHT22;3161;48.794;9.784;2022-10-16T04:16:51;15.00;99.90
6256;DHT22;3161;48.794;9.784;2022-10-16T04:19:19;14.90;99.90
6256;DHT22;3161;48.794;9.784;2022-10-16T04:21:46;14.90;99.90
6256;DHT22;3161;48.794;9.784;2022-10-16T04:24:14;14.90;99.90
6256;DHT22;3161;48.794;9.784;2022-10-16T04:26:41;14.90;99.90
6256;DHT22;3161;48.794;9.784;2022-10-16T04:29:09;14.90;99.90
6256;DHT22;3161;48.794;9.784;2022-10-16T04:31:37;14.90;99.90
6256;DHT22;3161;48.794;9.784;2022-10-16T04:34:04;14.80;99.90
6256;DHT22;3161;48.794;9.784;2022-10-16T04:36:32;14.80;99.90
6256;DHT22;3161;48.794;9.784;2022-10-16T04:38:59;14.80;99.90
6256;DHT22;3161;48.794;9.784;2022-10-16T04:41:27;14.80;99.90
6256;DHT22;3161;48.794;9.784;2022-10-16T04:43:54;14.80;99.90
6256;DHT22;3161;48.794;9.784;2022-10-16T04:46:22;14.80;99.90
6256;DHT22;3161;48.794;9.784;2022-10-16T04:48:49;14.70;99.90
6256;DHT22;3161;48.794;9.784;2022-10-16T04:51:17;14.70;99.90
6256;DHT22;3161;48.794;9.784;2022-10-16T04:53:45;14.70;99.90
6256;DHT22;3161;48.794;9.784;2022-10-16T04:56:12;14.70;99.90
6256;DHT22;3161;48.794;9.784;2022-10-16T04:58:41;14.70;99.90
6256;DHT22;3161;48.794;9.784;2022-10-16T05:01:09;14.70;99.90
6256;DHT22;3161;48.794;9.784;2022-10-16T05:03:36;14.60;99.90
6256;DHT22;3161;48.794;9.784;2022-10-16T05:06:06;14.60;99.90
6256;DHT22;3161;48.794;9.784;2022-10-16T05:08:33;14.70;99.90
6256;DHT22;3161;48.794;9.784;2022-10-16T05:11:01;14.60;99.90
6256;DHT22;3161;48.794;9.784;2022-10-16T05:13:28;14.60;99.90
6256;DHT22;3161;48.794;9.784;2022-10-16T05:15:56;14.60;99.90
6256;DHT22;3161;48.794;9.784;2022-10-16T05:18:23;14.70;99.90
6256;DHT22;3161;48.794;9.784;2022-10-16T05:20:51;14.70;99.90
6256;DHT22;3161;48.794;9.784;2022-10-16T05:23:18;14.70;99.90
6256;DHT22;3161;48.794;9.784;2022-10-16T05:28:34;14.60;99.90
6256;DHT22;3161;48.794;9.784;2022-10-16T05:31:07;14.60;99.90
6256;DHT22;3161;48.794;9.784;2022-10-16T05:33:35;14.60;99.90
6256;DHT22;3161;48.794;9.784;2022-10-16T05:36:08;14.60;99.90
6256;DHT22;3161;48.794;9.784;2022-10-16T05:38:36;14.60;99.90
6256;DHT22;3161;48.794;9.784;2022-10-16T05:41:05;14.60;99.90
6256;DHT22;3161;48.794;9.784;2022-10-16T05:43:33;14.60;99.90
6256;DHT22;3161;48.794;9.784;2022-10-16T05:46:05;14.60;99.90
6256;DHT22;3161;48.794;9.784;2022-10-16T05:48:33;14.60;99.90
6256;DHT22;3161;48.794;9.784;2022-10-16T05:51:03;14.60;99.90
6256;DHT22;3161;48.794;9.784;2022-10-16T05:53:33;14.60;99.90
6256;DHT22;3161;48.794;9.784;2022-10-16T05:56:01;14.70;99.90
6256;DHT22;3161;48.794;9.784;2022-10-16T05:58:32;14.60;99.90
6256;DHT22;3161;48.794;9.784;2022-10-16T06:01:05;14.60;99.90
6256;DHT22;3161;48.794;9.784;2022-10-16T06:03:34;14.60;99.90
6256;DHT22;3161;48.794;9.784;2022-10-16T06:06:17;14.70;99.90
6256;DHT22;3161;48.794;9.784;2022-10-16T06:08:41;14.70;99.90
6256;DHT22;3161;48.794;9.784;2022-10-16T06:11:12;14.70;99.90
6256;DHT22;3161;48.794;9.784;2022-10-16T06:13:40;14.70;99.90
6256;DHT22;3161;48.794;9.784;2022-10-16T06:16:13;14.70;99.90
6256;DHT22;3161;48.794;9.784;2022-10-16T06:18:40;14.70;99.90
6256;DHT22;3161;48.794;9.784;2022-10-16T06:21:14;14.70;99.90
6256;DHT22;3161;48.794;9.784;2022-10-16T06:23:41;14.70;99.90
6256;DHT22;3161;48.794;9.784;2022-10-16T06:26:11;14.80;99.90
6256;DHT22;3161;48.794;9.784;2022-10-16T06:28:39;14.80;99.90
6256;DHT22;3161;48.794;9.784;2022-10-16T06:31:08;14.80;99.90
6256;DHT22;3161;48.794;9.784;2022-10-16T06:33:37;14.80;99.90
6256;DHT22;3161;48.794;9.784;2022-10-16T06:36:12;14.90;99.90
6256;DHT22;3161;48.794;9.784;2022-10-16T06:38:36;14.90;99.90
6256;DHT22;3161;48.794;9.784;2022-10-16T06:41:05;14.90;99.90
6256;DHT22;3161;48.794;9.784;2022-10-16T06:43:33;15.00;99.90
6256;DHT22;3161;48.794;9.784;2022-10-16T06:46:05;15.00;99.90
6256;DHT22;3161;48.794;9.784;2022-10-16T06:48:34;15.00;99.90
6256;DHT22;3161;48.794;9.784;2022-10-16T06:51:09;15.10;99.90
6256;DHT22;3161;48.794;9.784;2022-10-16T06:53:37;15.10;99.90
6256;DHT22;3161;48.794;9.784;2022-10-16T06:56:14;15.20;99.90
6256;DHT22;3161;48.794;9.784;2022-10-16T06:58:42;15.20;99.90
6256;DHT22;3161;48.794;9.784;2022-10-16T07:01:11;15.20;99.90
6256;DHT22;3161;48.794;9.784;2022-10-16T07:03:40;15.30;99.90
6256;DHT22;3161;48.794;9.784;2022-10-16T07:06:10;15.30;99.90
6256;DHT22;3161;48.794;9.784;2022-10-16T07:08:40;15.40;99.90
6256;DHT22;3161;48.794;9.784;2022-10-16T07:11:14;15.40;99.90
6256;DHT22;3161;48.794;9.784;2022-10-16T07:13:43;15.50;99.90
6256;DHT22;3161;48.794;9.784;2022-10-16T07:16:17;15.60;99.90
6256;DHT22;3161;48.794;9.784;2022-10-16T07:18:45;15.70;99.90
6256;DHT22;3161;48.794;9.784;2022-10-16T07:21:19;15.70;99.90
6256;DHT22;3161;48.794;9.784;2022-10-16T07:23:55;15.80;99.90
6256;DHT22;3161;48.794;9.784;2022-10-16T07:26:23;15.90;99.90
6256;DHT22;3161;48.794;9.784;2022-10-16T07:28:51;16.00;99.90
6256;DHT22;3161;48.794;9.784;2022-10-16T07:31:20;16.20;99.90
6256;DHT22;3161;48.794;9.784;2022-10-16T07:33:49;16.30;99.90
6256;DHT22;3161;48.794;9.784;2022-10-16T07:36:20;16.40;99.90
6256;DHT22;3161;48.794;9.784;2022-10-16T07:38:48;16.50;99.90
6256;DHT22;3161;48.794;9.784;2022-10-16T07:41:17;16.60;99.90
6256;DHT22;3161;48.794;9.784;2022-10-16T07:43:49;16.60;99.90
6256;DHT22;3161;48.794;9.784;2022-10-16T07:46:18;16.60;99.90
6256;DHT22;3161;48.794;9.784;2022-10-16T07:48:46;16.60;99.90
6256;DHT22;3161;48.794;9.784;2022-10-16T07:51:17;16.60;99.90
6256;DHT22;3161;48.794;9.784;2022-10-16T07:53:45;16.60;99.90
6256;DHT22;3161;48.794;9.784;2022-10-16T07:56:14;16.60;99.90
6256;DHT22;3161;48.794;9.784;2022-10-16T07:58:42;16.70;99.90
6256;DHT22;3161;48.794;9.784;2022-10-16T08:01:12;16.70;99.90
6256;DHT22;3161;48.794;9.784;2022-10-16T08:03:45;16.70;99.90
6256;DHT22;3161;48.794;9.784;2022-10-16T08:06:34;16.70;99.90
6256;DHT22;3161;48.794;9.784;2022-10-16T08:09:01;16.80;99.90
6256;DHT22;3161;48.794;9.784;2022-10-16T08:11:28;16.80;99.90
6256;DHT22;3161;48.794;9.784;2022-10-16T08:13:56;16.80;99.90
6256;DHT22;3161;48.794;9.784;2022-10-16T08:16:23;16.80;99.90
6256;DHT22;3161;48.794;9.784;2022-10-16T08:18:51;16.80;99.90
6256;DHT22;3161;48.794;9.784;2022-10-16T08:21:21;16.80;99.90
6256;DHT22;3161;48.794;9.784;2022-10-16T08:23:51;16.80;99.90
6256;DHT22;3161;48.794;9.784;2022-10-16T08:26:21;16.90;99.90
6256;DHT22;3161;48.794;9.784;2022-10-16T08:28:51;16.90;99.90
6256;DHT22;3161;48.794;9.784;2022-10-16T08:31:19;16.90;99.90
6256;DHT22;3161;48.794;9.784;2022-10-16T08:33:47;16.90;99.90
6256;DHT22;3161;48.794;9.784;2022-10-16T08:36:15;16.90;99.90
6256;DHT22;3161;48.794;9.784;2022-10-16T08:38:43;17.00;99.90
6256;DHT22;3161;48.794;9.784;2022-10-16T08:41:40;17.00;99.90
6256;DHT22;3161;48.794;9.784;2022-10-16T08:44:34;17.00;99.90
6256;DHT22;3161;48.794;9.784;2022-10-16T08:50:09;17.10;99.90
6256;DHT22;3161;48.794;9.784;2022-10-16T08:52:15;17.20;99.90
6256;DHT22;3161;48.794;9.784;2022-10-16T08:54:45;17.20;99.90
6256;DHT22;3161;48.794;9.784;2022-10-16T08:57:19;17.30;99.90
6256;DHT22;3161;48.794;9.784;2022-10-16T08:59:46;17.40;99.90
6256;DHT22;3161;48.794;9.784;2022-10-16T09:07:30;17.70;99.90
6256;DHT22;3161;48.794;9.784;2022-10-16T09:15:46;18.00;99.90
6256;DHT22;3161;48.794;9.784;2022-10-16T09:18:34;18.00;99.90
6256;DHT22;3161;48.794;9.784;2022-10-16T09:21:06;18.00;99.90
6256;DHT22;3161;48.794;9.784;2022-10-16T09:23:35;18.00;99.90
6256;DHT22;3161;48.794;9.784;2022-10-16T09:26:05;18.00;99.90
6256;DHT22;3161;48.794;9.784;2022-10-16T09:28:34;18.00;99.90
6256;DHT22;3161;48.794;9.784;2022-10-16T09:31:01;18.00;99.90
6256;DHT22;3161;48.794;9.784;2022-10-16T09:33:36;18.00;99.90
6256;DHT22;3161;48.794;9.784;2022-10-16T09:36:06;18.00;99.90
6256;DHT22;3161;48.794;9.784;2022-10-16T09:38:35;18.00;99.90
6256;DHT22;3161;48.794;9.784;2022-10-16T09:43:49;18.00;99.90
6256;DHT22;3161;48.794;9.784;2022-10-16T09:46:30;18.10;99.90
6256;DHT22;3161;48.794;9.784;2022-10-16T09:51:45;18.20;99.90
6256;DHT22;3161;48.794;9.784;2022-10-16T09:54:16;18.30;99.90
6256;DHT22;3161;48.794;9.784;2022-10-16T09:56:44;18.40;99.90
6256;DHT22;3161;48.794;9.784;2022-10-16T09:59:17;18.50;99.90
6256;DHT22;3161;48.794;9.784;2022-10-16T10:01:52;18.60;99.90
6256;DHT22;3161;48.794;9.784;2022-10-16T10:04:23;18.60;99.90
6256;DHT22;3161;48.794;9.784;2022-10-16T10:06:58;18.70;99.90
6256;DHT22;3161;48.794;9.784;2022-10-16T10:09:27;18.80;99.90
6256;DHT22;3161;48.794;9.784;2022-10-16T10:11:58;18.90;99.90
6256;DHT22;3161;48.794;9.784;2022-10-16T10:14:30;19.00;99.90
6256;DHT22;3161;48.794;9.784;2022-10-16T10:19:43;19.20;99.90
6256;DHT22;3161;48.794;9.784;2022-10-16T10:22:25;19.30;99.90
6256;DHT22;3161;48.794;9.784;2022-10-16T10:30:42;19.60;99.90
6256;DHT22;3161;48.794;9.784;2022-10-16T10:41:29;19.90;99.90
6256;DHT22;3161;48.794;9.784;2022-10-16T10:47:01;20.30;99.90
6256;DHT22;3161;48.794;9.784;2022-10-16T10:50:02;20.50;99.90
6256;DHT22;3161;48.794;9.784;2022-10-16T11:02:57;21.20;99.90
6256;DHT22;3161;48.794;9.784;2022-10-16T11:05:35;21.30;99.90
6256;DHT22;3161;48.794;9.784;2022-10-16T11:10:53;21.60;99.90
6256;DHT22;3161;48.794;9.784;2022-10-16T11:16:15;21.80;99.90
6256;DHT22;3161;48.794;9.784;2022-10-16T11:18:49;21.90;99.90
6256;DHT22;3161;48.794;9.784;2022-10-16T11:21:18;22.00;99.90
6256;DHT22;3161;48.794;9.784;2022-10-16T11:26:24;22.10;99.90
6256;DHT22;3161;48.794;9.784;2022-10-16T11:28:56;22.20;99.90
6256;DHT22;3161;48.794;9.784;2022-10-16T11:31:30;22.30;99.90
6256;DHT22;3161;48.794;9.784;2022-10-16T11:34:06;22.40;99.90
6256;DHT22;3161;48.794;9.784;2022-10-16T11:36:42;22.40;99.90
6256;DHT22;3161;48.794;9.784;2022-10-16T11:39:21;22.60;99.90
6256;DHT22;3161;48.794;9.784;2022-10-16T11:42:16;22.70;99.90
6256;DHT22;3161;48.794;9.784;2022-10-16T11:45:02;22.90;99.90
6256;DHT22;3161;48.794;9.784;2022-10-16T11:47:45;23.00;99.90
6256;DHT22;3161;48.794;9.784;2022-10-16T11:53:22;23.20;99.90
6256;DHT22;3161;48.794;9.784;2022-10-16T11:55:47;23.30;99.90
6256;DHT22;3161;48.794;9.784;2022-10-16T11:58:32;23.50;99.90
6256;DHT22;3161;48.794;9.784;2022-10-16T12:09:04;24.20;99.90
6256;DHT22;3161;48.794;9.784;2022-10-16T12:11:38;24.40;99.90
6256;DHT22;3161;48.794;9.784;2022-10-16T12:16:56;24.50;99.90
6256;DHT22;3161;48.794;9.784;2022-10-16T12:19:28;24.50;99.90
6256;DHT22;3161;48.794;9.784;2022-10-16T12:21:58;24.50;99.90
6256;DHT22;3161;48.794;9.784;2022-10-16T12:24:37;24.50;99.90
6256;DHT22;3161;48.794;9.784;2022-10-16T12:30:03;24.40;99.90
6256;DHT22;3161;48.794;9.784;2022-10-16T12:32:32;24.30;99.90
6256;DHT22;3161;48.794;9.784;2022-10-16T12:35:02;24.40;99.90
6256;DHT22;3161;48.794;9.784;2022-10-16T12:37:37;24.40;99.90
6256;DHT22;3161;48.794;9.784;2022-10-16T12:40:26;24.40;99.90
6256;DHT22;3161;48.794;9.784;2022-10-16T12:42:53;24.50;99.90
6256;DHT22;3161;48.794;9.784;2022-10-16T12:45:32;24.60;99.90
6256;DHT22;3161;48.794;9.784;2022-10-16T12:48:02;24.60;99.90
6256;DHT22;3161;48.794;9.784;2022-10-16T12:50:33;24.70;99.90
6256;DHT22;3161;48.794;9.784;2022-10-16T12:53:02;24.80;99.90
6256;DHT22;3161;48.794;9.784;2022-10-16T12:55:46;24.90;99.90
6256;DHT22;3161;48.794;9.784;2022-10-16T12:58:33;25.00;99.90
6256;DHT22;3161;48.794;9.784;2022-10-16T13:01:03;25.10;99.90
6256;DHT22;3161;48.794;9.784;2022-10-16T13:03:53;25.30;99.90
6256;DHT22;3161;48.794;9.784;2022-10-16T13:09:26;25.70;99.90
6256;DHT22;3161;48.794;9.784;2022-10-16T13:11:59;25.80;99.90
6256;DHT22;3161;48.794;9.784;2022-10-16T13:20:15;26.40;99.90
6256;DHT22;3161;48.794;9.784;2022-10-16T13:25:45;26.90;99.90
6256;DHT22;3161;48.794;9.784;2022-10-16T13:28:11;26.90;99.90
6256;DHT22;3161;48.794;9.784;2022-10-16T13:30:53;26.70;99.90
6256;DHT22;3161;48.794;9.784;2022-10-16T13:33:33;26.50;99.90
6256;DHT22;3161;48.794;9.784;2022-10-16T13:36:02;26.10;99.90
6256;DHT22;3161;48.794;9.784;2022-10-16T13:38:34;25.70;99.90
6256;DHT22;3161;48.794;9.784;2022-10-16T13:41:17;25.50;99.90
6256;DHT22;3161;48.794;9.784;2022-10-16T13:43:47;25.30;99.90
6256;DHT22;3161;48.794;9.784;2022-10-16T13:46:20;25.10;99.90
6256;DHT22;3161;48.794;9.784;2022-10-16T13:49:00;24.90;99.90
6256;DHT22;3161;48.794;9.784;2022-10-16T13:51:29;24.80;99.90
6256;DHT22;3161;48.794;9.784;2022-10-16T13:53:57;24.80;99.90
6256;DHT22;3161;48.794;9.784;2022-10-16T13:56:28;24.80;99.90
6256;DHT22;3161;48.794;9.784;2022-10-16T13:59:20;24.80;99.90
6256;DHT22;3161;48.794;9.784;2022-10-16T14:01:33;25.00;99.90
6256;DHT22;3161;48.794;9.784;2022-10-16T14:04:07;24.90;99.90
6256;DHT22;3161;48.794;9.784;2022-10-16T14:06:36;25.00;99.90
6256;DHT22;3161;48.794;9.784;2022-10-16T14:09:08;25.00;99.90
6256;DHT22;3161;48.794;9.784;2022-10-16T14:11:42;25.10;99.90
6256;DHT22;3161;48.794;9.784;2022-10-16T14:14:10;25.20;99.90
6256;DHT22;3161;48.794;9.784;2022-10-16T14:16:39;25.50;99.90
6256;DHT22;3161;48.794;9.784;2022-10-16T14:19:18;25.90;99.90
6256;DHT22;3161;48.794;9.784;2022-10-16T14:21:44;26.70;99.90
6256;DHT22;3161;48.794;9.784;2022-10-16T14:24:34;27.60;99.90
6256;DHT22;3161;48.794;9.784;2022-10-16T14:26:43;28.60;99.90
6256;DHT22;3161;48.794;9.784;2022-10-16T14:29:13;29.90;99.90
6256;DHT22;3161;48.794;9.784;2022-10-16T14:31:41;30.80;99.90
6256;DHT22;3161;48.794;9.784;2022-10-16T14:37:16;31.40;98.60
6256;DHT22;3161;48.794;9.784;2022-10-16T14:39:42;31.10;96.70
6256;DHT22;3161;48.794;9.784;2022-10-16T14:42:16;30.60;97.90
6256;DHT22;3161;48.794;9.784;2022-10-16T14:44:46;29.90;98.70
6256;DHT22;3161;48.794;9.784;2022-10-16T14:47:17;29.30;99.20
6256;DHT22;3161;48.794;9.784;2022-10-16T14:49:50;28.90;99.90
6256;DHT22;3161;48.794;9.784;2022-10-16T14:52:19;28.40;99.90
6256;DHT22;3161;48.794;9.784;2022-10-16T14:54:50;27.90;99.90
6256;DHT22;3161;48.794;9.784;2022-10-16T14:57:22;27.30;99.90
6256;DHT22;3161;48.794;9.784;2022-10-16T14:59:50;26.70;99.90
6256;DHT22;3161;48.794;9.784;2022-10-16T15:02:27;26.20;99.90
6256;DHT22;3161;48.794;9.784;2022-10-16T15:04:54;25.70;99.90
6256;DHT22;3161;48.794;9.784;2022-10-16T15:07:22;25.20;99.90
6256;DHT22;3161;48.794;9.784;2022-10-16T15:09:50;24.80;99.90
6256;DHT22;3161;48.794;9.784;2022-10-16T15:12:18;24.40;99.90
6256;DHT22;3161;48.794;9.784;2022-10-16T15:14:45;24.00;99.90
6256;DHT22;3161;48.794;9.784;2022-10-16T15:17:13;23.70;99.90
6256;DHT22;3161;48.794;9.784;2022-10-16T15:19:40;23.40;99.90
6256;DHT22;3161;48.794;9.784;2022-10-16T15:22:10;23.20;99.90
6256;DHT22;3161;48.794;9.784;2022-10-16T15:24:38;23.00;99.90
6256;DHT22;3161;48.794;9.784;2022-10-16T15:27:06;22.80;99.90
6256;DHT22;3161;48.794;9.784;2022-10-16T15:29:33;22.60;99.90
6256;DHT22;3161;48.794;9.784;2022-10-16T15:32:01;22.50;99.90
6256;DHT22;3161;48.794;9.784;2022-10-16T15:34:29;22.40;99.90
6256;DHT22;3161;48.794;9.784;2022-10-16T15:36:56;22.20;99.90
6256;DHT22;3161;48.794;9.784;2022-10-16T15:39:24;22.10;99.90
6256;DHT22;3161;48.794;9.784;2022-10-16T15:41:51;22.00;99.90
6256;DHT22;3161;48.794;9.784;2022-10-16T15:44:20;21.90;99.90
6256;DHT22;3161;48.794;9.784;2022-10-16T15:46:49;21.80;99.90
6256;DHT22;3161;48.794;9.784;2022-10-16T15:49:17;21.80;99.90
6256;DHT22;3161;48.794;9.784;2022-10-16T15:51:45;21.70;99.90
6256;DHT22;3161;48.794;9.784;2022-10-16T15:54:13;21.60;99.90
6256;DHT22;3161;48.794;9.784;2022-10-16T15:56:40;21.50;99.90
6256;DHT22;3161;48.794;9.784;2022-10-16T15:59:08;21.40;99.90
6256;DHT22;3161;48.794;9.784;2022-10-16T16:01:36;21.30;99.90
6256;DHT22;3161;48.794;9.784;2022-10-16T16:04:03;21.30;99.90
6256;DHT22;3161;48.794;9.784;2022-10-16T16:06:31;21.20;99.90
6256;DHT22;3161;48.794;9.784;2022-10-16T16:08:59;21.10;99.90
6256;DHT22;3161;48.794;9.784;2022-10-16T16:11:27;21.00;99.90
6256;DHT22;3161;48.794;9.784;2022-10-16T16:13:54;21.00;99.90
6256;DHT22;3161;48.794;9.784;2022-10-16T16:16:22;20.90;99.90
6256;DHT22;3161;48.794;9.784;2022-10-16T16:18:52;20.80;99.90
6256;DHT22;3161;48.794;9.784;2022-10-16T16:21:19;20.80;99.90
6256;DHT22;3161;48.794;9.784;2022-10-16T16:23:47;20.80;99.90
6256;DHT22;3161;48.794;9.784;2022-10-16T16:26:27;20.70;99.90
6256;DHT22;3161;48.794;9.784;2022-10-16T16:28:45;20.60;99.90
6256;DHT22;3161;48.794;9.784;2022-10-16T16:31:12;20.60;99.90
6256;DHT22;3161;48.794;9.784;2022-10-16T16:33:40;20.50;99.90
6256;DHT22;3161;48.794;9.784;2022-10-16T16:36:07;20.40;99.90
6256;DHT22;3161;48.794;9.784;2022-10-16T16:38:35;20.40;99.90
6256;DHT22;3161;48.794;9.784;2022-10-16T16:41:20;20.30;99.90
6256;DHT22;3161;48.794;9.784;2022-10-16T16:43:48;20.20;99.90
6256;DHT22;3161;48.794;9.784;2022-10-16T16:46:18;20.20;99.90
6256;DHT22;3161;48.794;9.784;2022-10-16T16:48:46;20.10;99.90
6256;DHT22;3161;48.794;9.784;2022-10-16T16:51:17;20.00;99.90
6256;DHT22;3161;48.794;9.784;2022-10-16T16:53:50;20.00;99.90
6256;DHT22;3161;48.794;9.784;2022-10-16T16:56:17;19.90;99.90
6256;DHT22;3161;48.794;9.784;2022-10-16T16:58:49;19.90;99.90
6256;DHT22;3161;48.794;9.784;2022-10-16T17:01:18;19.80;99.90
6256;DHT22;3161;48.794;9.784;2022-10-16T17:03:45;19.80;99.90
6256;DHT22;3161;48.794;9.784;2022-10-16T17:06:14;19.70;99.90
6256;DHT22;3161;48.794;9.784;2022-10-16T17:08:42;19.70;99.90
6256;DHT22;3161;48.794;9.784;2022-10-16T17:11:14;19.60;99.90
6256;DHT22;3161;48.794;9.784;2022-10-16T17:13:43;19.60;99.90
6256;DHT22;3161;48.794;9.784;2022-10-16T17:16:11;19.50;99.90
6256;DHT22;3161;48.794;9.784;2022-10-16T17:18:39;19.50;99.90
6256;DHT22;3161;48.794;9.784;2022-10-16T17:21:09;19.40;99.90
6256;DHT22;3161;48.794;9.784;2022-10-16T17:23:37;19.40;99.90
6256;DHT22;3161;48.794;9.784;2022-10-16T17:26:07;19.30;99.90
6256;DHT22;3161;48.794;9.784;2022-10-16T17:28:35;19.30;99.90
6256;DHT22;3161;48.794;9.784;2022-10-16T17:31:08;19.20;99.90
6256;DHT22;3161;48.794;9.784;2022-10-16T17:33:36;19.10;99.90
6256;DHT22;3161;48.794;9.784;2022-10-16T17:36:04;19.10;99.90
6256;DHT22;3161;48.794;9.784;2022-10-16T17:38:33;19.10;99.90
6256;DHT22;3161;48.794;9.784;2022-10-16T17:41:15;19.00;99.90
6256;DHT22;3161;48.794;9.784;2022-10-16T17:43:43;18.90;99.90
6256;DHT22;3161;48.794;9.784;2022-10-16T17:46:12;18.90;99.90
6256;DHT22;3161;48.794;9.784;2022-10-16T17:48:42;18.90;99.90
6256;DHT22;3161;48.794;9.784;2022-10-16T17:51:12;18.80;99.90
6256;DHT22;3161;48.794;9.784;2022-10-16T17:53:40;18.70;99.90
6256;DHT22;3161;48.794;9.784;2022-10-16T17:56:11;18.70;99.90
6256;DHT22;3161;48.794;9.784;2022-10-16T17:58:39;18.60;99.90
6256;DHT22;3161;48.794;9.784;2022-10-16T18:01:16;18.60;99.90
6256;DHT22;3161;48.794;9.784;2022-10-16T18:03:47;18.50;99.90
6256;DHT22;3161;48.794;9.784;2022-10-16T18:06:13;18.50;99.90